Time;durP1;ratioP1;P1;durP2;ratioP2;P2;SDS_P1;SDS_P2;PMS_P1;PMS_P2;Temp;Humidity;BMP_temperature;BMP_pressure;BME280_temperature;BME280_humidity;BME280_pressure;Samples;Min_cycle;Max_cycle;Signal;HPM_P1;HPM_P2
2023/11/20 00:02:09;;;;;;;13.25;2.78;;;;;12.50;98296.00;;;;4934804;29;20044;-65
2023/11/20 00:04:36;;;;;;;16.38;2.80;;;;;12.60;98300.00;;;;4934473;29;20110;-64
2023/11/20 00:07:05;;;;;;;13.75;3.15;;;;;12.60;98287.00;;;;4935118;29;20061;-63
2023/11/20 00:09:32;;;;;;;15.63;3.10;;;;;12.60;98289.00;;;;4935146;29;20512;-64
2023/11/20 00:11:59;;;;;;;21.27;4.40;;;;;12.60;98282.00;;;;4934061;29;20098;-65
2023/11/20 00:14:26;;;;;;;12.38;2.90;;;;;12.70;98282.00;;;;4933317;29;20066;-64
2023/11/20 00:16:52;;;;;;;16.90;3.15;;;;;12.70;98285.00;;;;4935128;29;20048;-65
2023/11/20 00:19:20;;;;;;;14.00;2.85;;;;;12.70;98291.00;;;;4935108;29;20151;-65
2023/11/20 00:21:46;;;;;;;20.38;3.70;;;;;12.70;98294.00;;;;4935001;29;20099;-65
2023/11/20 00:24:13;;;;;;;10.23;2.60;;;;;12.70;98297.00;;;;4934316;29;20459;-65
2023/11/20 00:26:39;;;;;;;15.45;3.20;;;;;12.70;98281.00;;;;4934903;29;20062;-65
2023/11/20 00:29:08;;;;;;;19.67;3.30;;;;;12.70;98280.00;;;;4935017;29;20473;-64
2023/11/20 00:31:36;;;;;;;14.90;2.85;;;;;12.70;98279.00;;;;4934896;29;20052;-64
2023/11/20 00:34:03;;;;;;;14.98;3.28;;;;;12.70;98281.00;;;;4934555;29;20421;-65
2023/11/20 00:36:30;;;;;;;19.65;3.40;;;;;12.70;98295.00;;;;4934744;29;20043;-64
2023/11/20 00:38:57;;;;;;;16.73;3.30;;;;;12.70;98290.00;;;;4934823;29;20051;-65
2023/11/20 00:41:25;;;;;;;15.57;3.35;;;;;12.70;98293.00;;;;4934809;29;20048;-65
2023/11/20 00:43:51;;;;;;;10.88;2.67;;;;;12.70;98289.00;;;;4934234;29;20043;-65
2023/11/20 00:46:18;;;;;;;10.30;2.63;;;;;12.70;98293.00;;;;4934572;29;20044;-65
2023/11/20 00:48:45;;;;;;;12.73;2.33;;;;;12.70;98289.00;;;;4933551;29;20083;-64
2023/11/20 00:51:13;;;;;;;18.67;3.25;;;;;12.70;98290.00;;;;4934793;29;20547;-65
2023/11/20 00:53:40;;;;;;;11.98;3.08;;;;;12.70;98296.00;;;;4917200;29;20286;-64
2023/11/20 00:56:07;;;;;;;14.43;3.13;;;;;12.70;98294.00;;;;4933352;29;20142;-65
2023/11/20 00:58:34;;;;;;;15.35;3.30;;;;;12.70;98298.00;;;;4934617;29;20043;-64
2023/11/20 01:01:01;;;;;;;12.07;2.95;;;;;12.70;98293.00;;;;4934635;29;20051;-65
2023/11/20 01:03:28;;;;;;;15.48;2.95;;;;;12.70;98297.00;;;;4932864;29;20107;-64
2023/11/20 01:05:59;;;;;;;19.52;3.45;;;;;12.80;98291.00;;;;4933112;29;20095;-64
2023/11/20 01:08:25;;;;;;;16.48;3.25;;;;;12.80;98294.00;;;;4933390;29;20056;-64
2023/11/20 01:10:52;;;;;;;14.68;2.85;;;;;12.80;98297.00;;;;4933418;29;20402;-64
2023/11/20 01:13:19;;;;;;;16.85;3.88;;;;;12.80;98294.00;;;;4934569;29;20040;-64
2023/11/20 01:15:46;;;;;;;9.35;2.80;;;;;12.80;98305.00;;;;4936470;29;20134;-65
2023/11/20 01:18:14;;;;;;;14.57;2.95;;;;;12.80;98297.00;;;;4937156;29;20047;-64
2023/11/20 01:20:41;;;;;;;19.40;3.22;;;;;12.80;98296.00;;;;4938197;29;20409;-65
2023/11/20 01:23:07;;;;;;;12.05;2.60;;;;;12.80;98301.00;;;;4936934;29;20143;-64
2023/11/20 01:25:35;;;;;;;16.63;3.25;;;;;12.90;98305.00;;;;4936511;29;20126;-65
2023/11/20 01:28:02;;;;;;;17.05;2.65;;;;;12.90;98302.00;;;;4938163;29;20050;-65
2023/11/20 01:30:28;;;;;;;17.00;2.95;;;;;12.90;98311.00;;;;4938092;29;20394;-64
2023/11/20 01:32:55;;;;;;;13.68;3.28;;;;;12.80;98313.00;;;;4938061;29;20071;-65
2023/11/20 01:35:22;;;;;;;13.55;3.28;;;;;12.90;98311.00;;;;4937422;29;20050;-65
2023/11/20 01:37:48;;;;;;;17.27;3.47;;;;;12.80;98292.00;;;;4937895;29;20405;-64
2023/11/20 01:40:16;;;;;;;17.42;3.40;;;;;12.80;98310.00;;;;4937925;29;20051;-65
2023/11/20 01:42:43;;;;;;;12.20;3.20;;;;;12.80;98311.00;;;;4936579;29;20055;-65
2023/11/20 01:45:10;;;;;;;12.88;2.75;;;;;12.90;98304.00;;;;4937068;29;20051;-65
2023/11/20 01:47:37;;;;;;;17.25;3.10;;;;;12.90;98297.00;;;;4936339;29;20414;-64
2023/11/20 01:50:07;;;;;;;11.35;2.15;;;;;12.80;98300.00;;;;4937743;29;20039;-65
2023/11/20 01:52:36;;;;;;;12.70;3.58;;;;;12.80;98293.00;;;;4936425;29;20054;-65
2023/11/20 01:55:03;;;;;;;11.30;2.95;;;;;12.80;98295.00;;;;4935669;29;20079;-65
2023/11/20 01:57:30;;;;;;;11.48;2.92;;;;;12.80;98295.00;;;;4936474;29;20784;-64
2023/11/20 01:59:57;;;;;;;18.52;2.95;;;;;12.80;98278.00;;;;4936403;29;20409;-65
2023/11/20 02:02:23;;;;;;;17.45;3.53;;;;;12.80;98280.00;;;;4936396;29;20074;-64
2023/11/20 02:04:54;;;;;;;9.30;2.60;;;;;12.80;98288.00;;;;4935537;29;20048;-65
2023/11/20 02:07:21;;;;;;;11.13;3.15;;;;;12.70;98288.00;;;;4937408;29;20039;-65
2023/11/20 02:09:48;;;;;;;15.98;2.97;;;;;12.70;98283.00;;;;4937439;29;20063;-65
2023/11/20 02:12:16;;;;;;;13.95;3.00;;;;;12.70;98294.00;;;;4937480;29;20466;-64
2023/11/20 02:14:42;;;;;;;14.50;2.90;;;;;12.70;98284.00;;;;4935379;29;20143;-65
2023/11/20 02:17:10;;;;;;;14.13;3.28;;;;;12.60;98294.00;;;;4935990;29;20056;-65
2023/11/20 02:19:37;;;;;;;16.38;3.60;;;;;12.60;98285.00;;;;4937341;29;20095;-65
2023/11/20 02:22:03;;;;;;;9.85;3.00;;;;;12.70;98274.00;;;;4935932;29;20398;-65
2023/11/20 02:24:30;;;;;;;14.80;3.10;;;;;12.70;98282.00;;;;4936476;29;20047;-64
2023/11/20 02:27:23;;;;;;;18.08;4.00;;;;;12.70;98274.00;;;;4934735;29;20437;-64
2023/11/20 02:29:52;;;;;;;15.18;3.15;;;;;12.60;98271.00;;;;4935761;29;20058;-64
2023/11/20 02:32:20;;;;;;;9.63;2.30;;;;;12.60;98249.00;;;;4935809;29;20439;-65
2023/11/20 02:34:46;;;;;;;13.80;3.08;;;;;12.60;98259.00;;;;4935170;29;20461;-65
2023/11/20 02:37:14;;;;;;;14.60;2.80;;;;;12.60;98256.00;;;;4936927;29;20138;-64
2023/11/20 02:39:40;;;;;;;16.25;3.72;;;;;12.60;98247.00;;;;4936866;29;20063;-65
2023/11/20 02:42:07;;;;;;;13.05;3.45;;;;;12.60;98263.00;;;;4936838;29;20568;-65
2023/11/20 02:44:37;;;;;;;11.82;2.42;;;;;12.50;98260.00;;;;4936235;29;20051;-65
2023/11/20 02:47:06;;;;;;;20.70;3.63;;;;;12.50;98260.00;;;;4935523;29;20568;-65
2023/11/20 02:49:36;;;;;;;19.60;3.10;;;;;12.50;98253.00;;;;4936702;29;20040;-64
2023/11/20 02:52:07;;;;;;;13.93;2.63;;;;;12.50;98258.00;;;;4936609;29;20450;-65
2023/11/20 02:54:35;;;;;;;15.98;3.08;;;;;12.50;98242.00;;;;4936032;29;20047;-65
2023/11/20 02:57:03;;;;;;;13.13;2.90;;;;;12.50;98249.00;;;;4919653;29;20106;-65
2023/11/20 02:59:29;;;;;;;17.75;2.92;;;;;12.50;98243.00;;;;4936475;29;20083;-65
2023/11/20 03:01:56;;;;;;;12.32;2.70;;;;;12.50;98241.00;;;;4936592;29;20561;-65
2023/11/20 03:04:23;;;;;;;14.60;2.88;;;;;12.50;98238.00;;;;4934581;29;20435;-65
2023/11/20 03:06:50;;;;;;;16.38;3.25;;;;;12.40;98243.00;;;;4934817;29;20056;-65
2023/11/20 03:09:17;;;;;;;13.82;3.50;;;;;12.50;98231.00;;;;4935130;29;20119;-64
2023/11/20 03:11:45;;;;;;;10.85;2.70;;;;;12.40;98239.00;;;;4935221;29;20058;-65
2023/11/20 03:14:13;;;;;;;10.93;2.30;;;;;12.40;98234.00;;;;4934317;29;20058;-65
2023/11/20 03:16:40;;;;;;;8.10;2.20;;;;;12.40;98221.00;;;;4934986;29;20055;-64
2023/11/20 03:19:08;;;;;;;14.43;2.95;;;;;12.40;98231.00;;;;4934829;29;20052;-65
2023/11/20 03:21:36;;;;;;;13.15;2.97;;;;;12.40;98225.00;;;;4936141;29;20054;-65
2023/11/20 03:24:05;;;;;;;19.52;3.22;;;;;12.40;98229.00;;;;4935392;29;20040;-65
2023/11/20 03:26:32;;;;;;;10.20;2.33;;;;;12.40;98226.00;;;;4936409;29;20564;-64
2023/11/20 03:28:58;;;;;;;11.95;2.92;;;;;12.30;98233.00;;;;4934724;29;20501;-65
2023/11/20 03:31:33;;;;;;;15.88;3.33;;;;;12.30;98234.00;;;;4934731;29;20143;-63
2023/11/20 03:34:01;;;;;;;12.45;2.88;;;;;12.40;98234.00;;;;4935306;29;20071;-65
2023/11/20 03:36:29;;;;;;;16.05;3.60;;;;;12.40;98230.00;;;;4935602;29;20044;-64
2023/11/20 03:38:56;;;;;;;14.68;3.22;;;;;12.40;98225.00;;;;4935826;29;20040;-65
2023/11/20 03:41:23;;;;;;;12.82;2.45;;;;;12.40;98230.00;;;;4934519;29;20048;-65
2023/11/20 03:43:50;;;;;;;14.38;2.78;;;;;12.40;98232.00;;;;4933889;29;20145;-67
2023/11/20 03:46:16;;;;;;;9.82;2.58;;;;;12.40;98221.00;;;;4935532;29;20493;-65
2023/11/20 03:48:43;;;;;;;15.85;2.92;;;;;12.40;98228.00;;;;4934394;29;20058;-64
2023/11/20 03:51:10;;;;;;;14.00;2.80;;;;;12.40;98234.00;;;;4935482;29;20047;-64
2023/11/20 03:53:36;;;;;;;14.50;3.20;;;;;12.40;98227.00;;;;4933666;29;20140;-64
2023/11/20 03:56:03;;;;;;;16.70;4.38;;;;;12.30;98219.00;;;;4934195;29;20079;-65
2023/11/20 03:58:30;;;;;;;16.02;3.08;;;;;12.30;98223.00;;;;4934367;29;20047;-65
2023/11/20 04:00:56;;;;;;;8.50;2.78;;;;;12.30;98233.00;;;;4935301;29;20489;-64
2023/11/20 04:03:23;;;;;;;15.70;3.78;;;;;12.20;98239.00;;;;4935044;29;20102;-63
2023/11/20 04:05:49;;;;;;;9.15;2.85;;;;;12.20;98234.00;;;;4933958;29;20552;-65
2023/11/20 04:08:16;;;;;;;17.33;3.53;;;;;12.10;98233.00;;;;4935228;29;20048;-65
2023/11/20 04:10:43;;;;;;;12.50;2.75;;;;;12.10;98241.00;;;;4934052;29;20134;-64
2023/11/20 04:13:10;;;;;;;13.88;3.55;;;;;12.00;98233.00;;;;4935280;29;20481;-64
2023/11/20 04:15:37;;;;;;;14.10;2.80;;;;;12.00;98240.00;;;;4934478;29;20043;-65
2023/11/20 04:18:03;;;;;;;15.52;3.05;;;;;12.00;98245.00;;;;4935186;29;20437;-65
2023/11/20 04:20:30;;;;;;;12.05;2.58;;;;;12.00;98249.00;;;;4933872;29;20435;-64
2023/11/20 04:22:57;;;;;;;18.77;3.22;;;;;12.00;98244.00;;;;4933827;29;20052;-64
2023/11/20 04:25:24;;;;;;;12.52;2.65;;;;;12.00;98252.00;;;;4934480;29;20413;-65
2023/11/20 04:27:52;;;;;;;12.65;2.60;;;;;12.00;98251.00;;;;4934904;29;20436;-64
2023/11/20 04:30:20;;;;;;;13.93;2.85;;;;;12.00;98247.00;;;;4934949;29;20052;-64
2023/11/20 04:32:46;;;;;;;15.20;3.03;;;;;12.00;98247.00;;;;4934970;29;20123;-65
2023/11/20 04:35:13;;;;;;;13.38;2.80;;;;;12.00;98239.00;;;;4934347;29;20051;-64
2023/11/20 04:37:40;;;;;;;14.73;2.97;;;;;12.00;98243.00;;;;4934812;29;20048;-65
2023/11/20 04:40:07;;;;;;;11.88;3.05;;;;;12.10;98244.00;;;;4935221;29;20378;-64
2023/11/20 04:42:34;;;;;;;14.32;2.95;;;;;12.10;98244.00;;;;4935056;29;20051;-65
2023/11/20 04:45:01;;;;;;;16.73;3.13;;;;;12.10;98233.00;;;;4935472;29;20247;-65
2023/11/20 04:47:28;;;;;;;15.48;3.03;;;;;12.10;98228.00;;;;4933573;29;20039;-64
2023/11/20 04:49:54;;;;;;;12.48;3.15;;;;;12.00;98231.00;;;;4934300;29;20138;-65
2023/11/20 04:52:21;;;;;;;13.63;3.15;;;;;12.00;98243.00;;;;4934698;29;20538;-65
2023/11/20 04:54:47;;;;;;;8.10;2.40;;;;;12.00;98235.00;;;;4934085;29;20054;-64
2023/11/20 04:57:15;;;;;;;11.10;2.60;;;;;12.00;98238.00;;;;4933574;29;20075;-65
2023/11/20 04:59:41;;;;;;;13.65;2.30;;;;;11.90;98239.00;;;;4933526;29;20098;-64
2023/11/20 05:02:08;;;;;;;14.27;2.55;;;;;11.90;98229.00;;;;4917758;29;20052;-65
2023/11/20 05:04:35;;;;;;;10.80;2.33;;;;;12.00;98241.00;;;;4934027;29;20070;-65
2023/11/20 05:07:02;;;;;;;11.48;2.08;;;;;12.00;98243.00;;;;4934520;29;20050;-65
2023/11/20 05:09:28;;;;;;;10.70;2.72;;;;;12.00;98239.00;;;;4933389;29;20050;-65
2023/11/20 05:11:57;;;;;;;11.48;2.03;;;;;12.00;98239.00;;;;4934611;29;20043;-65
2023/11/20 05:14:23;;;;;;;10.98;2.35;;;;;12.00;98228.00;;;;4933850;29;20130;-65
2023/11/20 05:16:50;;;;;;;14.05;2.20;;;;;11.90;98227.00;;;;4934539;29;20058;-64
2023/11/20 05:19:16;;;;;;;8.40;2.10;;;;;11.90;98232.00;;;;4934499;29;20055;-65
2023/11/20 05:21:45;;;;;;;6.85;2.00;;;;;11.90;98223.00;;;;4934365;29;20055;-64
2023/11/20 05:24:11;;;;;;;8.07;2.33;;;;;11.90;98220.00;;;;4933726;29;20103;-65
2023/11/20 05:26:38;;;;;;;7.15;1.77;;;;;11.90;98233.00;;;;4933226;29;20135;-65
2023/11/20 05:29:05;;;;;;;8.00;2.63;;;;;11.90;98223.00;;;;4934286;29;20040;-64
2023/11/20 05:31:32;;;;;;;6.60;2.03;;;;;11.80;98222.00;;;;4932998;29;20062;-65
2023/11/20 05:33:58;;;;;;;7.10;1.55;;;;;11.90;98225.00;;;;4933707;29;20075;-64
2023/11/20 05:36:26;;;;;;;8.45;2.00;;;;;11.90;98225.00;;;;4932871;29;20114;-64
2023/11/20 05:38:52;;;;;;;6.57;1.80;;;;;11.90;98232.00;;;;4934313;29;20349;-64
2023/11/20 05:41:19;;;;;;;7.25;1.73;;;;;11.90;98225.00;;;;4934209;29;20452;-64
2023/11/20 05:43:45;;;;;;;7.90;1.95;;;;;11.80;98236.00;;;;4933575;29;20614;-64
2023/11/20 05:46:13;;;;;;;10.02;1.90;;;;;11.80;98248.00;;;;4934087;29;20052;-65
2023/11/20 05:48:40;;;;;;;11.07;2.17;;;;;11.80;98252.00;;;;4934131;29;20118;-65
2023/11/20 05:51:07;;;;;;;6.22;1.70;;;;;11.80;98239.00;;;;4934221;29;20052;-65
2023/11/20 05:53:33;;;;;;;6.05;1.48;;;;;11.80;98243.00;;;;4933525;29;20083;-65
2023/11/20 05:56:00;;;;;;;7.38;2.05;;;;;11.70;98246.00;;;;4934132;29;20053;-65
2023/11/20 05:58:27;;;;;;;7.55;1.92;;;;;11.70;98242.00;;;;4934380;29;20505;-65
2023/11/20 06:00:53;;;;;;;3.92;1.30;;;;;11.60;98245.00;;;;4935000;29;20122;-64
2023/11/20 06:03:20;;;;;;;6.22;1.45;;;;;11.50;98239.00;;;;4937442;29;20054;-64
2023/11/20 06:05:47;;;;;;;5.65;1.40;;;;;11.40;98238.00;;;;4937188;29;20052;-65
2023/11/20 06:08:13;;;;;;;6.00;1.13;;;;;11.40;98243.00;;;;4936346;29;20131;-65
2023/11/20 06:10:40;;;;;;;9.15;1.55;;;;;11.40;98238.00;;;;4937326;29;20130;-64
2023/11/20 06:13:07;;;;;;;7.82;1.70;;;;;11.40;98245.00;;;;4937472;29;20072;-65
2023/11/20 06:15:34;;;;;;;5.22;1.23;;;;;11.40;98257.00;;;;4936687;29;20425;-64
2023/11/20 06:18:00;;;;;;;6.88;1.88;;;;;11.40;98249.00;;;;4937227;29;20044;-65
2023/11/20 06:20:28;;;;;;;4.32;1.77;;;;;11.40;98235.00;;;;4937024;29;20051;-66
2023/11/20 06:22:55;;;;;;;3.67;1.30;;;;;11.40;98243.00;;;;4935849;29;20110;-65
2023/11/20 06:25:21;;;;;;;3.17;1.20;;;;;11.40;98233.00;;;;4936395;29;20043;-65
2023/11/20 06:27:48;;;;;;;6.50;1.65;;;;;11.30;98239.00;;;;4937101;29;20449;-65
2023/11/20 06:30:15;;;;;;;7.85;1.80;;;;;11.30;98229.00;;;;4937025;29;20055;-65
2023/11/20 06:32:41;;;;;;;4.60;1.60;;;;;11.30;98234.00;;;;4936964;29;20056;-65
2023/11/20 06:35:08;;;;;;;8.10;1.48;;;;;11.30;98235.00;;;;4935019;29;20054;-65
2023/11/20 06:37:35;;;;;;;6.25;1.42;;;;;11.30;98232.00;;;;4936935;29;20051;-65
2023/11/20 06:40:02;;;;;;;8.80;1.60;;;;;11.30;98231.00;;;;4935623;29;20067;-63
2023/11/20 06:42:28;;;;;;;5.25;2.03;;;;;11.20;98224.00;;;;4936898;29;20071;-65
2023/11/20 06:44:55;;;;;;;9.80;2.17;;;;;11.20;98228.00;;;;4936046;29;20515;-65
2023/11/20 06:47:22;;;;;;;5.65;1.50;;;;;11.20;98226.00;;;;4936589;29;20087;-65
2023/11/20 06:49:49;;;;;;;8.07;1.67;;;;;11.20;98227.00;;;;4936512;29;20054;-65
2023/11/20 06:52:16;;;;;;;7.38;1.50;;;;;11.20;98226.00;;;;4936570;29;20044;-65
2023/11/20 06:54:43;;;;;;;6.78;1.80;;;;;11.20;98227.00;;;;4935910;29;20053;-65
2023/11/20 06:57:11;;;;;;;3.58;1.58;;;;;11.30;98243.00;;;;4936541;29;20049;-65
2023/11/20 06:59:38;;;;;;;5.43;1.40;;;;;11.30;98233.00;;;;4935443;29;20040;-66
2023/11/20 07:02:05;;;;;;;3.80;1.55;;;;;11.30;98224.00;;;;4936383;29;20043;-65
2023/11/20 07:04:37;;;;;;;5.50;1.33;;;;;11.40;98233.00;;;;4935800;29;20047;-65
2023/11/20 07:07:04;;;;;;;3.92;1.83;;;;;11.30;98233.00;;;;4935144;29;20102;-65
2023/11/20 07:09:31;;;;;;;10.18;1.73;;;;;11.30;98238.00;;;;4936298;29;20118;-65
2023/11/20 07:11:57;;;;;;;6.82;1.70;;;;;11.30;98227.00;;;;4935855;29;20100;-64
2023/11/20 07:14:24;;;;;;;9.15;2.13;;;;;11.30;98238.00;;;;4934359;29;20047;-65
2023/11/20 07:16:51;;;;;;;3.47;1.70;;;;;11.30;98238.00;;;;4936293;29;20048;-65
2023/11/20 07:19:18;;;;;;;9.85;2.45;;;;;11.30;98239.00;;;;4934892;29;20046;-65
2023/11/20 07:21:44;;;;;;;7.72;1.65;;;;;11.30;98238.00;;;;4934924;29;20048;-63
2023/11/20 07:24:11;;;;;;;7.20;2.08;;;;;11.30;98251.00;;;;4935588;29;20497;-65
2023/11/20 07:26:39;;;;;;;3.67;1.35;;;;;11.40;98249.00;;;;4936339;29;20626;-66
2023/11/20 07:29:05;;;;;;;8.88;1.88;;;;;11.40;98261.00;;;;4935922;29;20048;-65
2023/11/20 07:31:32;;;;;;;9.48;2.22;;;;;11.40;98261.00;;;;4935897;29;20126;-64
2023/11/20 07:34:00;;;;;;;9.32;1.88;;;;;11.50;98262.00;;;;4935304;29;20099;-65
2023/11/20 07:36:27;;;;;;;5.93;1.45;;;;;11.50;98262.00;;;;4934585;29;20086;-65
2023/11/20 07:38:53;;;;;;;8.18;1.52;;;;;11.40;98265.00;;;;4935929;29;20464;-65
2023/11/20 07:41:20;;;;;;;5.82;1.50;;;;;11.40;98273.00;;;;4935801;29;20079;-64
2023/11/20 07:43:47;;;;;;;4.47;1.10;;;;;11.50;98269.00;;;;4934958;29;20106;-65
2023/11/20 07:46:13;;;;;;;7.25;1.80;;;;;11.50;98271.00;;;;4934338;29;20046;-66
2023/11/20 07:48:40;;;;;;;6.45;1.55;;;;;11.50;98271.00;;;;4935499;29;20040;-63
2023/11/20 07:51:07;;;;;;;4.32;1.35;;;;;11.60;98269.00;;;;4935566;29;20130;-63
2023/11/20 07:53:33;;;;;;;7.68;1.90;;;;;11.60;98266.00;;;;4933802;29;20075;-64
2023/11/20 07:56:00;;;;;;;9.82;1.65;;;;;11.70;98264.00;;;;4935520;29;20051;-64
2023/11/20 07:58:26;;;;;;;10.55;2.35;;;;;11.80;98272.00;;;;4935347;29;20046;-64
2023/11/20 08:00:53;;;;;;;4.55;1.77;;;;;11.80;98270.00;;;;4935437;29;20044;-63
2023/11/20 08:03:20;;;;;;;8.45;2.10;;;;;11.80;98272.00;;;;4935259;29;20043;-61
2023/11/20 08:05:46;;;;;;;8.50;2.45;;;;;11.80;98270.00;;;;4934812;29;20473;-66
2023/11/20 08:08:15;;;;;;;9.38;2.08;;;;;11.80;98267.00;;;;4935287;29;20050;-64
2023/11/20 08:10:42;;;;;;;6.40;1.63;;;;;12.00;98265.00;;;;4935263;29;20132;-63
2023/11/20 08:13:08;;;;;;;8.02;1.58;;;;;12.10;98264.00;;;;4935328;29;20047;-64
2023/11/20 08:15:35;;;;;;;4.90;1.80;;;;;12.20;98266.00;;;;4934588;29;20044;-62
2023/11/20 08:18:02;;;;;;;7.35;1.60;;;;;12.20;98263.00;;;;4935201;29;20480;-63
2023/11/20 08:20:29;;;;;;;7.93;1.48;;;;;12.20;98259.00;;;;4935140;29;20043;-64
2023/11/20 08:22:56;;;;;;;6.03;1.40;;;;;12.10;98267.00;;;;4934861;29;20050;-64
2023/11/20 08:25:24;;;;;;;5.75;1.27;;;;;12.10;98259.00;;;;4933951;29;20489;-64
2023/11/20 08:27:51;;;;;;;4.25;1.40;;;;;12.00;98263.00;;;;4933821;29;20054;-64
2023/11/20 08:30:17;;;;;;;4.30;1.33;;;;;12.00;98242.00;;;;4934860;29;20047;-64
2023/11/20 08:32:44;;;;;;;4.10;1.20;;;;;12.10;98242.00;;;;4934889;29;20122;-64
2023/11/20 08:35:11;;;;;;;4.50;1.23;;;;;12.10;98245.00;;;;4934343;29;20461;-64
2023/11/20 08:37:39;;;;;;;4.55;1.50;;;;;12.10;98247.00;;;;4933580;29;20525;-64
2023/11/20 08:40:08;;;;;;;3.83;1.40;;;;;12.10;98240.00;;;;4934864;29;20044;-64
2023/11/20 08:42:36;;;;;;;7.00;1.40;;;;;12.10;98249.00;;;;4935082;29;20047;-64
2023/11/20 08:45:04;;;;;;;3.35;1.27;;;;;12.10;98245.00;;;;4932827;29;20051;-63
2023/11/20 08:47:31;;;;;;;5.38;1.30;;;;;12.20;98256.00;;;;4934836;29;20058;-64
2023/11/20 08:49:58;;;;;;;4.13;1.00;;;;;12.20;98248.00;;;;4934742;29;20039;-63
2023/11/20 08:52:25;;;;;;;3.08;1.33;;;;;12.30;98244.00;;;;4933346;29;20103;-63
2023/11/20 08:54:52;;;;;;;4.00;1.80;;;;;12.30;98235.00;;;;4934032;29;20110;-64
2023/11/20 08:57:19;;;;;;;2.92;1.02;;;;;12.30;98248.00;;;;4934709;29;20046;-63
2023/11/20 08:59:46;;;;;;;4.30;1.10;;;;;12.30;98245.00;;;;4934624;29;20058;-63
2023/11/20 09:02:12;;;;;;;4.72;1.15;;;;;12.30;98236.00;;;;4933530;29;20062;-64
2023/11/20 09:04:39;;;;;;;4.28;1.10;;;;;12.40;98241.00;;;;4932803;29;20052;-63
2023/11/20 09:07:05;;;;;;;5.38;1.10;;;;;12.40;98243.00;;;;4933307;29;20067;-63
2023/11/20 09:09:35;;;;;;;5.78;1.45;;;;;12.40;98248.00;;;;4933432;29;20044;-66
2023/11/20 09:12:02;;;;;;;4.30;1.17;;;;;12.40;98244.00;;;;4934812;29;20055;-64
2023/11/20 09:14:30;;;;;;;4.68;1.52;;;;;12.30;98259.00;;;;4934011;29;20087;-64
2023/11/20 09:16:57;;;;;;;4.90;1.27;;;;;12.30;98260.00;;;;4934686;29;20078;-64
2023/11/20 09:19:24;;;;;;;6.75;1.52;;;;;12.20;98261.00;;;;4934638;29;20046;-64
2023/11/20 09:21:51;;;;;;;3.35;1.40;;;;;12.20;98257.00;;;;4934473;29;20119;-64
2023/11/20 09:24:18;;;;;;;7.03;2.25;;;;;12.20;98254.00;;;;4933881;29;20052;-64
2023/11/20 09:26:45;;;;;;;3.60;1.17;;;;;12.40;98250.00;;;;4934691;29;20058;-66
2023/11/20 09:29:11;;;;;;;4.45;1.30;;;;;12.40;98257.00;;;;4934559;29;20058;-65
2023/11/20 09:31:38;;;;;;;3.95;1.15;;;;;12.60;98245.00;;;;4934556;29;20048;-64
2023/11/20 09:34:06;;;;;;;6.82;1.75;;;;;12.80;98251.00;;;;4933681;29;20047;-64
2023/11/20 09:36:33;;;;;;;6.13;1.17;;;;;12.90;98253.00;;;;4937769;29;20123;-65
2023/11/20 09:38:59;;;;;;;9.35;1.58;;;;;12.90;98247.00;;;;4938104;29;20048;-65
2023/11/20 09:41:26;;;;;;;5.68;1.38;;;;;12.90;98236.00;;;;4938174;29;20436;-64
2023/11/20 09:43:55;;;;;;;5.07;1.40;;;;;12.90;98231.00;;;;4937481;29;20054;-64
2023/11/20 09:46:22;;;;;;;2.80;1.10;;;;;12.80;98229.00;;;;4936669;29;20634;-64
2023/11/20 09:48:50;;;;;;;9.55;2.50;;;;;12.90;98230.00;;;;4936663;29;20083;-64
2023/11/20 09:51:22;;;;;;;7.53;1.80;;;;;13.00;98239.00;;;;4938016;29;20061;-64
2023/11/20 09:53:52;;;;;;;4.93;1.73;;;;;13.20;98231.00;;;;4937420;29;20057;-64
2023/11/20 09:56:19;;;;;;;7.43;1.33;;;;;13.40;98223.00;;;;4936723;29;20295;-64
2023/11/20 09:58:46;;;;;;;5.13;1.20;;;;;13.40;98226.00;;;;4937713;29;20461;-63
2023/11/20 10:01:13;;;;;;;5.03;1.45;;;;;13.30;98231.00;;;;4937592;29;20079;-64
2023/11/20 10:03:42;;;;;;;8.95;1.77;;;;;13.20;98237.00;;;;4937119;29;20457;-65
2023/11/20 10:06:14;;;;;;;8.05;1.63;;;;;13.00;98225.00;;;;4937368;29;20083;-65
2023/11/20 10:08:45;;;;;;;5.35;1.13;;;;;12.80;98223.00;;;;4936349;29;20051;-64
2023/11/20 10:11:16;;;;;;;3.20;1.10;;;;;12.60;98234.00;;;;4937645;29;20098;-64
2023/11/20 10:13:43;;;;;;;3.25;1.38;;;;;12.50;98223.00;;;;4936766;29;20059;-67
2023/11/20 10:16:19;;;;;;;4.15;1.10;;;;;12.50;98223.00;;;;4937345;29;20051;-65
2023/11/20 10:18:47;;;;;;;3.00;1.25;;;;;12.50;98216.00;;;;4937500;29;20410;-64
2023/11/20 10:21:14;;;;;;;9.88;1.85;;;;;12.40;98220.00;;;;4936051;29;20051;-65
2023/11/20 10:23:41;;;;;;;3.65;1.30;;;;;12.40;98214.00;;;;4936851;29;20153;-64
2023/11/20 10:26:08;;;;;;;4.78;1.10;;;;;12.50;98227.00;;;;4937200;29;20050;-64
2023/11/20 10:28:41;;;;;;;5.82;1.70;;;;;12.40;98214.00;;;;4937184;29;20062;-65
2023/11/20 10:31:08;;;;;;;9.90;2.00;;;;;12.40;98214.00;;;;4937218;29;20099;-64
2023/11/20 10:33:36;;;;;;;6.72;1.33;;;;;12.40;98214.00;;;;4936631;29;20043;-64
2023/11/20 10:36:14;;;;;;;4.10;1.38;;;;;12.50;98214.00;;;;4937015;29;20075;-64
2023/11/20 10:38:44;;;;;;;7.00;1.67;;;;;12.60;98204.00;;;;4937143;29;20051;-65
2023/11/20 10:41:11;;;;;;;5.15;1.48;;;;;12.70;98207.00;;;;4937151;29;20047;-65
2023/11/20 10:43:42;;;;;;;3.95;1.20;;;;;12.70;98197.00;;;;4936430;29;20078;-66
2023/11/20 10:46:09;;;;;;;4.93;1.25;;;;;12.70;98196.00;;;;4936460;29;20044;-66
2023/11/20 10:48:39;;;;;;;3.08;1.38;;;;;12.70;98197.00;;;;4936639;29;20052;-63
2023/11/20 10:51:12;;;;;;;5.80;1.33;;;;;12.70;98185.00;;;;4936832;29;20062;-64
2023/11/20 10:53:40;;;;;;;3.08;1.33;;;;;12.70;98190.00;;;;4936069;29;20090;-64
2023/11/20 10:56:09;;;;;;;5.75;1.27;;;;;12.60;98177.00;;;;4935708;29;20043;-64
2023/11/20 10:58:38;;;;;;;2.75;0.90;;;;;12.60;98173.00;;;;4936841;29;20127;-63
2023/11/20 11:01:07;;;;;;;2.05;0.95;;;;;12.60;98172.00;;;;4936652;29;20043;-64
2023/11/20 11:03:34;;;;;;;5.07;1.30;;;;;12.70;98158.00;;;;4918956;29;20048;-64
2023/11/20 11:06:04;;;;;;;5.57;1.38;;;;;12.80;98165.00;;;;4936321;29;20049;-64
2023/11/20 11:08:32;;;;;;;3.03;1.90;;;;;12.90;98171.00;;;;4936528;29;20039;-64
2023/11/20 11:11:02;;;;;;;2.58;1.08;;;;;12.90;98154.00;;;;4936541;29;20071;-64
2023/11/20 11:13:35;;;;;;;2.15;0.93;;;;;12.90;98156.00;;;;4935861;29;20071;-64
2023/11/20 11:16:07;;;;;;;1.52;0.80;;;;;13.00;98160.00;;;;4936435;29;20099;-64
2023/11/20 11:18:37;;;;;;;1.20;0.90;;;;;13.10;98150.00;;;;4935114;29;20134;-64
2023/11/20 11:21:08;;;;;;;1.48;0.70;;;;;13.20;98147.00;;;;4936201;29;20051;-64
2023/11/20 11:23:40;;;;;;;2.72;0.88;;;;;13.30;98137.00;;;;4935595;29;20055;-64
2023/11/20 11:26:27;;;;;;;2.63;1.13;;;;;13.60;98143.00;;;;4936102;29;20047;-63
2023/11/20 11:29:00;;;;;;;2.45;0.85;;;;;13.70;98138.00;;;;4935994;29;20107;-64
2023/11/20 11:31:48;;;;;;;3.33;0.73;;;;;13.70;98135.00;;;;4934819;29;20058;-64
2023/11/20 11:34:47;;;;;;;1.98;0.90;;;;;13.70;98133.00;;;;4935328;29;20063;-64
2023/11/20 11:37:30;;;;;;;3.00;0.95;;;;;13.60;98130.00;;;;4935727;29;20057;-64
2023/11/20 11:40:09;;;;;;;4.90;0.95;;;;;13.60;98121.00;;;;4935990;29;20044;-63
2023/11/20 11:42:45;;;;;;;5.70;1.17;;;;;13.60;98120.00;;;;4934664;29;20398;-65
2023/11/20 11:45:18;;;;;;;3.63;0.90;;;;;13.50;98116.00;;;;4935110;29;20051;-64
2023/11/20 11:47:47;;;;;;;3.92;0.95;;;;;13.50;98106.00;;;;4935807;29;20055;-64
2023/11/20 11:50:17;;;;;;;1.27;0.90;;;;;13.50;98097.00;;;;4934452;29;20052;-64
2023/11/20 11:52:48;;;;;;;3.13;1.02;;;;;13.80;98107.00;;;;4935801;29;20130;-64
2023/11/20 11:55:15;;;;;;;5.35;1.10;;;;;13.80;98104.00;;;;4934967;29;20058;-64
2023/11/20 11:57:43;;;;;;;3.50;1.02;;;;;13.60;98095.00;;;;4935357;29;20048;-64
2023/11/20 12:00:13;;;;;;;4.72;1.23;;;;;13.50;98094.00;;;;4935394;29;20044;-65
2023/11/20 12:03:11;;;;;;;4.22;1.38;;;;;13.50;98092.00;;;;4934393;29;20040;-63
2023/11/20 12:05:59;;;;;;;6.57;1.30;;;;;13.40;98083.00;;;;4934749;29;20046;-64
2023/11/20 12:08:33;;;;;;;5.00;1.40;;;;;13.50;98078.00;;;;4930474;29;20060;-63
2023/11/20 12:11:00;;;;;;;;;;;;;13.80;98079.00;;;;4935664;29;20126;-64
2023/11/20 12:13:26;;;;;;;6.75;1.52;;;;;13.80;98075.00;;;;4934692;29;20457;-64
2023/11/20 12:15:59;;;;;;;6.80;2.58;;;;;13.90;98074.00;;;;4935126;29;20036;-64
2023/11/20 12:18:32;;;;;;;4.88;1.27;;;;;13.80;98070.00;;;;4935202;29;20071;-64